createdAt,value
2023-02-06T00:02:58.620Z,1028.38
2023-02-06T00:05:58.730Z,1028.4
2023-02-06T00:08:58.623Z,1028.39
2023-02-06T00:11:58.615Z,1028.41
2023-02-06T00:14:58.611Z,1028.35
2023-02-06T00:17:58.618Z,1028.38
2023-02-06T00:20:58.619Z,1028.44
2023-02-06T00:23:58.615Z,1028.47
2023-02-06T00:26:58.615Z,1028.44
2023-02-06T00:29:58.620Z,1028.43
2023-02-06T00:32:58.620Z,1028.51
2023-02-06T00:35:58.622Z,1028.55
2023-02-06T00:38:58.618Z,1028.55
2023-02-06T00:41:58.624Z,1028.6
2023-02-06T00:44:58.622Z,1028.59
2023-02-06T00:47:58.633Z,1028.64
2023-02-06T00:50:58.620Z,1028.67
2023-02-06T00:53:58.620Z,1028.7
2023-02-06T00:56:58.624Z,1028.76
2023-02-06T00:59:58.633Z,1028.74
2023-02-06T01:02:58.672Z,1028.73
2023-02-06T01:05:58.629Z,1028.77
2023-02-06T01:08:58.620Z,1028.78
2023-02-06T01:11:58.626Z,1028.75
2023-02-06T01:14:58.626Z,1028.8
2023-02-06T01:17:58.620Z,1028.83
2023-02-06T01:20:58.620Z,1028.83
2023-02-06T01:23:58.632Z,1028.86
2023-02-06T01:26:58.628Z,1028.92
2023-02-06T01:29:58.627Z,1028.92
2023-02-06T01:32:58.633Z,1028.89
2023-02-06T01:35:58.624Z,1028.82
2023-02-06T01:38:58.640Z,1028.75
2023-02-06T01:41:58.622Z,1028.79
2023-02-06T01:44:58.630Z,1028.84
2023-02-06T01:47:58.614Z,1028.81
2023-02-06T01:50:58.642Z,1028.78
2023-02-06T01:53:58.633Z,1028.8
2023-02-06T01:56:58.637Z,1028.82
2023-02-06T01:59:58.632Z,1028.8
2023-02-06T02:02:58.636Z,1028.74
2023-02-06T02:05:58.622Z,1028.71
2023-02-06T02:08:58.630Z,1028.7
2023-02-06T02:11:58.640Z,1028.64
2023-02-06T02:14:58.640Z,1028.65
2023-02-06T02:17:58.636Z,1028.66
2023-02-06T02:20:58.636Z,1028.67
2023-02-06T02:23:58.639Z,1028.61
2023-02-06T02:26:58.656Z,1028.61
2023-02-06T02:29:58.643Z,1028.57
2023-02-06T02:32:58.662Z,1028.51
2023-02-06T02:35:58.652Z,1028.48
2023-02-06T02:38:58.652Z,1028.45
2023-02-06T02:41:58.647Z,1028.42
2023-02-06T02:44:58.643Z,1028.41
2023-02-06T02:47:58.645Z,1028.39
2023-02-06T02:50:58.659Z,1028.39
2023-02-06T02:53:58.657Z,1028.46
2023-02-06T02:56:58.651Z,1028.47
2023-02-06T02:59:58.646Z,1028.39
2023-02-06T03:02:58.638Z,1028.43
2023-02-06T03:05:58.646Z,1028.49
2023-02-06T03:08:58.650Z,1028.57
2023-02-06T03:11:58.643Z,1028.6
2023-02-06T03:14:58.653Z,1028.66
2023-02-06T03:17:58.648Z,1028.67
2023-02-06T03:20:58.654Z,1028.7
2023-02-06T03:23:58.651Z,1028.73
2023-02-06T03:26:58.649Z,1028.7
2023-02-06T03:29:58.650Z,1028.69
2023-02-06T03:32:58.668Z,1028.64
2023-02-06T03:35:58.648Z,1028.56
2023-02-06T03:38:58.651Z,1028.59
2023-02-06T03:41:58.652Z,1028.61
2023-02-06T03:44:58.648Z,1028.67
2023-02-06T03:47:58.680Z,1028.68
2023-02-06T03:50:58.664Z,1028.66
2023-02-06T03:53:58.674Z,1028.68
2023-02-06T03:56:58.654Z,1028.69
2023-02-06T03:59:58.678Z,1028.66
2023-02-06T04:02:58.666Z,1028.6
2023-02-06T04:05:58.669Z,1028.65
2023-02-06T04:08:58.668Z,1028.69
2023-02-06T04:11:58.696Z,1028.68
2023-02-06T04:14:58.669Z,1028.61
2023-02-06T04:18:00.853Z,1028.55
2023-02-06T04:20:58.668Z,1028.59
2023-02-06T04:23:58.668Z,1028.59
2023-02-06T04:26:58.682Z,1028.64
2023-02-06T04:29:58.670Z,1028.66
2023-02-06T04:32:58.671Z,1028.67
2023-02-06T04:35:58.677Z,1028.73
2023-02-06T04:38:58.676Z,1028.7
2023-02-06T04:41:58.667Z,1028.76
2023-02-06T04:44:58.681Z,1028.78
2023-02-06T04:47:59.565Z,1028.68
2023-02-06T04:50:58.675Z,1028.69
2023-02-06T04:53:58.673Z,1028.69
2023-02-06T04:56:58.673Z,1028.68
2023-02-06T04:59:58.688Z,1028.63
2023-02-06T05:02:58.690Z,1028.68
2023-02-06T05:05:58.679Z,1028.74
2023-02-06T05:08:58.670Z,1028.73
2023-02-06T05:11:58.671Z,1028.81
2023-02-06T05:14:58.677Z,1028.8
2023-02-06T05:17:58.684Z,1028.78
2023-02-06T05:20:58.670Z,1028.75
2023-02-06T05:23:58.668Z,1028.81
2023-02-06T05:26:58.674Z,1028.86
2023-02-06T05:29:58.670Z,1028.86
2023-02-06T05:32:58.680Z,1028.82
2023-02-06T05:35:58.677Z,1028.79
2023-02-06T05:38:58.675Z,1028.79
2023-02-06T05:41:58.683Z,1028.78
2023-02-06T05:44:58.677Z,1028.71
2023-02-06T05:47:58.728Z,1028.71
2023-02-06T05:50:58.681Z,1028.74
2023-02-06T05:53:58.676Z,1028.82
2023-02-06T05:56:58.692Z,1028.8
2023-02-06T05:59:58.688Z,1028.75
2023-02-06T06:02:58.684Z,1028.73
2023-02-06T06:05:58.685Z,1028.61
2023-02-06T06:08:58.697Z,1028.55
2023-02-06T06:11:58.696Z,1028.51
2023-02-06T06:14:58.705Z,1028.52
2023-02-06T06:17:58.692Z,1028.53
2023-02-06T06:20:58.697Z,1028.51
2023-02-06T06:23:58.701Z,1028.44
2023-02-06T06:26:58.702Z,1028.46
2023-02-06T06:29:58.697Z,1028.36
2023-02-06T06:32:58.699Z,1028.49
2023-02-06T06:35:58.697Z,1028.62
2023-02-06T06:38:58.694Z,1028.61
2023-02-06T06:41:58.696Z,1028.61
2023-02-06T06:44:58.722Z,1028.7
2023-02-06T06:47:58.687Z,1028.73
2023-02-06T06:50:58.693Z,1028.67
2023-02-06T06:53:58.694Z,1028.65
2023-02-06T06:56:58.694Z,1028.67
2023-02-06T06:59:58.695Z,1028.74
2023-02-06T07:02:58.740Z,1028.79
2023-02-06T07:05:58.713Z,1028.78
2023-02-06T07:08:58.698Z,1028.73
2023-02-06T07:11:58.701Z,1028.75
2023-02-06T07:14:58.702Z,1028.77
2023-02-06T07:17:58.700Z,1028.79
2023-02-06T07:20:58.723Z,1028.76
2023-02-06T07:23:58.698Z,1028.76
2023-02-06T07:26:58.699Z,1028.82
2023-02-06T07:29:58.707Z,1028.78
2023-02-06T07:32:58.709Z,1028.79
2023-02-06T07:35:58.730Z,1028.83
2023-02-06T07:38:58.706Z,1028.8
2023-02-06T07:41:58.709Z,1028.72
2023-02-06T07:44:58.715Z,1028.63
2023-02-06T07:47:58.718Z,1028.66
2023-02-06T07:50:58.718Z,1028.66
2023-02-06T07:53:58.703Z,1028.66
2023-02-06T07:56:58.708Z,1028.71
2023-02-06T07:59:58.702Z,1028.71
2023-02-06T08:02:58.705Z,1028.71
2023-02-06T08:05:58.709Z,1028.73
2023-02-06T08:08:58.717Z,1028.82
2023-02-06T08:11:58.709Z,1028.85
2023-02-06T08:14:58.753Z,1028.84
2023-02-06T08:17:58.710Z,1028.89
2023-02-06T08:20:58.732Z,1028.84
2023-02-06T08:23:58.720Z,1028.82
2023-02-06T08:26:58.713Z,1028.76
2023-02-06T08:29:58.712Z,1028.79
2023-02-06T08:32:58.739Z,1028.73
2023-02-06T08:35:58.724Z,1028.7
2023-02-06T08:38:58.713Z,1028.75
2023-02-06T08:41:58.711Z,1028.81
2023-02-06T08:44:58.715Z,1028.82
2023-02-06T08:47:58.716Z,1028.8
2023-02-06T08:50:58.714Z,1028.76
2023-02-06T08:53:58.713Z,1028.79
2023-02-06T08:56:58.714Z,1028.77
2023-02-06T08:59:58.731Z,1028.84
2023-02-06T09:02:58.739Z,1028.76
2023-02-06T09:06:05.535Z,1028.7
2023-02-06T09:08:58.737Z,1028.65
2023-02-06T09:11:58.714Z,1028.64
2023-02-06T09:14:58.729Z,1028.68
2023-02-06T09:17:58.721Z,1028.68
2023-02-06T09:20:58.715Z,1028.65
2023-02-06T09:23:58.714Z,1028.71
2023-02-06T09:27:00.403Z,1028.62
2023-02-06T09:29:58.718Z,1028.7
2023-02-06T09:32:58.721Z,1028.71
2023-02-06T09:35:58.724Z,1028.77
2023-02-06T09:38:58.734Z,1028.79
2023-02-06T09:41:58.726Z,1028.73
2023-02-06T09:44:58.721Z,1028.61
2023-02-06T09:47:58.715Z,1028.68
2023-02-06T09:50:58.719Z,1028.72
2023-02-06T09:53:58.733Z,1028.68
2023-02-06T09:56:58.758Z,1028.65
2023-02-06T09:59:58.728Z,1028.64
2023-02-06T10:02:58.736Z,1028.65
2023-02-06T10:05:58.719Z,1028.58
2023-02-06T10:08:58.731Z,1028.53
2023-02-06T10:11:58.728Z,1028.55
2023-02-06T10:14:58.723Z,1028.42
2023-02-06T10:17:58.718Z,1028.44
2023-02-06T10:20:58.725Z,1028.37
2023-02-06T10:23:58.728Z,1028.29
2023-02-06T10:26:58.720Z,1028.25
2023-02-06T10:29:58.726Z,1028.22
2023-02-06T10:32:58.731Z,1028.26
2023-02-06T10:35:58.739Z,1028.33
2023-02-06T10:38:58.736Z,1028.26
2023-02-06T10:41:58.730Z,1028.26
2023-02-06T10:45:09.737Z,1028.16
2023-02-06T10:47:58.745Z,1028.08
2023-02-06T10:50:58.736Z,1028.06
2023-02-06T10:53:58.749Z,1028.09
2023-02-06T10:56:58.747Z,1028.05
2023-02-06T10:59:58.744Z,1027.94
2023-02-06T11:03:06.998Z,1027.94
2023-02-06T11:05:58.732Z,1027.94
2023-02-06T11:08:58.738Z,1027.9
2023-02-06T11:11:58.740Z,1027.78
2023-02-06T11:14:58.739Z,1027.74
2023-02-06T11:17:58.739Z,1027.77
2023-02-06T11:20:58.753Z,1027.66
2023-02-06T11:23:58.736Z,1027.57
2023-02-06T11:26:58.745Z,1027.53
2023-02-06T11:29:58.740Z,1027.51
2023-02-06T11:33:04.252Z,1027.54
2023-02-06T11:35:58.746Z,1027.51
2023-02-06T11:38:58.745Z,1027.43
2023-02-06T11:41:58.746Z,1027.45
2023-02-06T11:44:58.745Z,1027.44
2023-02-06T11:47:58.749Z,1027.43
2023-02-06T11:50:58.750Z,1027.39
2023-02-06T11:53:58.747Z,1027.38
2023-02-06T11:56:58.756Z,1027.34
2023-02-06T11:59:58.745Z,1027.42
2023-02-06T12:02:58.745Z,1027.32
2023-02-06T12:05:59.624Z,1027.26
2023-02-06T12:08:58.748Z,1027.27
2023-02-06T12:11:58.750Z,1027.18
2023-02-06T12:14:58.752Z,1027.18
2023-02-06T12:17:58.748Z,1027.1
2023-02-06T12:20:58.753Z,1027.05
2023-02-06T12:23:58.755Z,1026.96
2023-02-06T12:26:58.753Z,1027
2023-02-06T12:29:58.762Z,1026.96
2023-02-06T12:32:58.771Z,1026.93
2023-02-06T12:35:58.752Z,1026.99
2023-02-06T12:38:58.752Z,1026.97
2023-02-06T12:41:58.757Z,1026.94
2023-02-06T12:44:58.751Z,1026.9
2023-02-06T12:47:58.756Z,1026.86
2023-02-06T12:50:58.752Z,1026.82
2023-02-06T12:53:58.749Z,1026.81
2023-02-06T12:56:58.749Z,1026.79
2023-02-06T12:59:58.975Z,1026.79
2023-02-06T13:02:58.853Z,1026.74
2023-02-06T13:05:58.752Z,1026.79
2023-02-06T13:08:58.755Z,1026.71
2023-02-06T13:11:58.756Z,1026.63
2023-02-06T13:14:58.755Z,1026.64
2023-02-06T13:17:58.757Z,1026.65
2023-02-06T13:20:58.753Z,1026.66
2023-02-06T13:23:58.762Z,1026.77
2023-02-06T13:26:58.763Z,1026.73
2023-02-06T13:29:58.765Z,1026.68
2023-02-06T13:32:58.772Z,1026.63
2023-02-06T13:35:58.772Z,1026.58
2023-02-06T13:38:58.762Z,1026.61
2023-02-06T13:41:58.757Z,1026.56
2023-02-06T13:44:58.757Z,1026.58
2023-02-06T13:47:58.757Z,1026.59
2023-02-06T13:50:58.761Z,1026.57
2023-02-06T13:53:58.776Z,1026.57
2023-02-06T13:56:58.823Z,1026.53
2023-02-06T13:59:58.776Z,1026.59
2023-02-06T14:02:58.836Z,1026.64
2023-02-06T14:05:58.768Z,1026.58
2023-02-06T14:08:58.775Z,1026.57
2023-02-06T14:11:58.772Z,1026.55
2023-02-06T14:14:58.766Z,1026.48
2023-02-06T14:17:58.766Z,1026.5
2023-02-06T14:20:58.775Z,1026.48
2023-02-06T14:23:58.770Z,1026.41
2023-02-06T14:26:58.762Z,1026.4
2023-02-06T14:29:58.764Z,1026.46
2023-02-06T14:32:58.772Z,1026.45
2023-02-06T14:35:58.764Z,1026.41
2023-02-06T14:38:58.764Z,1026.38
2023-02-06T14:41:58.779Z,1026.44
2023-02-06T14:44:58.779Z,1026.41
2023-02-06T14:47:58.775Z,1026.41
2023-02-06T14:50:58.770Z,1026.38
2023-02-06T14:53:58.774Z,1026.37
2023-02-06T14:56:58.801Z,1026.34
2023-02-06T14:59:58.786Z,1026.25
2023-02-06T15:02:58.767Z,1026.23
2023-02-06T15:05:58.772Z,1026.24
2023-02-06T15:08:58.779Z,1026.28
2023-02-06T15:11:58.775Z,1026.23
2023-02-06T15:14:58.778Z,1026.2
2023-02-06T15:17:58.781Z,1026.2
2023-02-06T15:20:58.770Z,1026.19
2023-02-06T15:23:58.784Z,1026.2
2023-02-06T15:26:58.786Z,1026.17
2023-02-06T15:29:58.787Z,1026.16
2023-02-06T15:32:58.780Z,1026.13
2023-02-06T15:35:58.801Z,1026.21
2023-02-06T15:38:58.785Z,1026.26
2023-02-06T15:41:58.786Z,1026.24
2023-02-06T15:44:58.778Z,1026.23
2023-02-06T15:47:58.786Z,1026.31
2023-02-06T15:50:58.784Z,1026.32
2023-02-06T15:53:58.792Z,1026.35
2023-02-06T15:56:58.785Z,1026.35
2023-02-06T15:59:58.790Z,1026.32
2023-02-06T16:02:58.808Z,1026.26
2023-02-06T16:05:58.792Z,1026.28
2023-02-06T16:08:58.794Z,1026.34
2023-02-06T16:11:58.784Z,1026.37
2023-02-06T16:14:58.799Z,1026.35
2023-02-06T16:17:58.793Z,1026.44
2023-02-06T16:20:58.788Z,1026.47
2023-02-06T16:23:58.791Z,1026.5
2023-02-06T16:26:58.793Z,1026.52
2023-02-06T16:29:58.787Z,1026.57
2023-02-06T16:32:58.779Z,1026.62
2023-02-06T16:35:58.780Z,1026.59
2023-02-06T16:39:03.959Z,1026.65
2023-02-06T16:41:58.788Z,1026.61
2023-02-06T16:44:58.782Z,1026.61
2023-02-06T16:47:58.787Z,1026.62
2023-02-06T16:50:58.783Z,1026.59
2023-02-06T16:53:58.784Z,1026.59
2023-02-06T16:56:58.788Z,1026.63
2023-02-06T16:59:58.794Z,1026.64
2023-02-06T17:02:58.780Z,1026.62
2023-02-06T17:05:58.795Z,1026.74
2023-02-06T17:08:58.806Z,1026.69
2023-02-06T17:11:58.791Z,1026.67
2023-02-06T17:14:58.795Z,1026.77
2023-02-06T17:17:58.788Z,1026.77
2023-02-06T17:20:58.789Z,1026.84
2023-02-06T17:23:58.808Z,1026.77
2023-02-06T17:26:58.791Z,1026.65
2023-02-06T17:29:58.814Z,1026.73
2023-02-06T17:32:58.793Z,1026.72
2023-02-06T17:35:58.797Z,1026.76
2023-02-06T17:38:58.807Z,1026.79
2023-02-06T17:41:58.814Z,1026.81
2023-02-06T17:44:58.797Z,1026.76
2023-02-06T17:47:58.796Z,1026.75
2023-02-06T17:50:58.798Z,1026.66
2023-02-06T17:53:58.805Z,1026.64
2023-02-06T17:56:58.801Z,1026.69
2023-02-06T17:59:58.798Z,1026.7
2023-02-06T18:02:58.852Z,1026.71
2023-02-06T18:05:58.806Z,1026.77
2023-02-06T18:08:58.805Z,1026.77
2023-02-06T18:11:58.799Z,1026.75
2023-02-06T18:14:58.805Z,1026.77
2023-02-06T18:17:58.798Z,1026.8
2023-02-06T18:20:58.808Z,1026.78
2023-02-06T18:23:58.802Z,1026.82
2023-02-06T18:26:58.803Z,1026.85
2023-02-06T18:29:58.800Z,1026.8
2023-02-06T18:32:58.800Z,1026.75
2023-02-06T18:35:58.826Z,1026.8
2023-02-06T18:38:58.818Z,1026.77
2023-02-06T18:41:58.798Z,1026.7
2023-02-06T18:44:58.807Z,1026.75
2023-02-06T18:47:58.798Z,1026.75
2023-02-06T18:50:58.793Z,1026.67
2023-02-06T18:53:58.802Z,1026.65
2023-02-06T18:56:58.800Z,1026.63
2023-02-06T18:59:58.808Z,1026.68
2023-02-06T19:02:58.805Z,1026.67
2023-02-06T19:05:58.797Z,1026.72
2023-02-06T19:08:58.802Z,1026.75
2023-02-06T19:11:58.800Z,1026.75
2023-02-06T19:14:58.812Z,1026.79
2023-02-06T19:17:58.812Z,1026.82
2023-02-06T19:20:58.814Z,1026.92
2023-02-06T19:23:58.813Z,1026.96
2023-02-06T19:26:58.857Z,1026.92
2023-02-06T19:29:58.815Z,1026.97
2023-02-06T19:32:58.817Z,1027.11
2023-02-06T19:35:58.809Z,1027.27
2023-02-06T19:38:58.814Z,1027.29
2023-02-06T19:41:58.803Z,1027.36
2023-02-06T19:44:58.807Z,1027.47
2023-02-06T19:47:58.913Z,1027.48
2023-02-06T19:50:58.809Z,1027.51
2023-02-06T19:53:58.812Z,1027.61
2023-02-06T19:56:58.820Z,1027.77
2023-02-06T19:59:58.806Z,1027.89
2023-02-06T20:02:58.805Z,1027.82
2023-02-06T20:05:58.812Z,1027.87
2023-02-06T20:08:58.810Z,1027.85
2023-02-06T20:11:58.823Z,1027.91
2023-02-06T20:14:58.822Z,1027.91
2023-02-06T20:17:58.816Z,1027.85
2023-02-06T20:20:58.829Z,1027.73
2023-02-06T20:23:58.812Z,1027.66
2023-02-06T20:26:58.819Z,1027.76
2023-02-06T20:29:58.815Z,1027.87
2023-02-06T20:32:58.823Z,1027.9
2023-02-06T20:35:58.814Z,1027.9
2023-02-06T20:38:58.822Z,1027.86
2023-02-06T20:41:58.813Z,1027.81
2023-02-06T20:44:58.814Z,1027.83
2023-02-06T20:47:58.814Z,1027.86
2023-02-06T20:50:58.814Z,1027.8
2023-02-06T20:53:58.817Z,1027.85
2023-02-06T20:56:58.812Z,1027.82
2023-02-06T20:59:58.816Z,1027.6
2023-02-06T21:02:58.821Z,1027.5
2023-02-06T21:05:58.839Z,1027.75
2023-02-06T21:08:58.823Z,1027.78
2023-02-06T21:11:58.825Z,1027.62
2023-02-06T21:14:58.826Z,1027.63
2023-02-06T21:17:58.826Z,1027.67
2023-02-06T21:20:58.829Z,1027.62
2023-02-06T21:23:58.830Z,1027.7
2023-02-06T21:26:58.836Z,1027.72
2023-02-06T21:29:58.851Z,1027.7
2023-02-06T21:32:58.881Z,1027.75
2023-02-06T21:35:58.826Z,1027.88
2023-02-06T21:38:58.836Z,1027.86
2023-02-06T21:41:58.827Z,1027.8
2023-02-06T21:44:58.827Z,1027.79
2023-02-06T21:47:58.827Z,1027.77
2023-02-06T21:50:58.836Z,1027.84
2023-02-06T21:53:58.839Z,1027.88
2023-02-06T21:56:58.844Z,1027.91
2023-02-06T21:59:58.835Z,1027.88
2023-02-06T22:02:58.871Z,1027.9
2023-02-06T22:05:58.835Z,1027.89
2023-02-06T22:08:58.833Z,1027.83
2023-02-06T22:11:58.840Z,1027.84
2023-02-06T22:14:58.828Z,1027.87
2023-02-06T22:17:58.834Z,1027.95
2023-02-06T22:20:58.831Z,1027.96
2023-02-06T22:23:58.874Z,1027.96
2023-02-06T22:26:58.839Z,1027.93
2023-02-06T22:29:58.838Z,1027.81
2023-02-06T22:32:58.834Z,1027.85
2023-02-06T22:35:58.832Z,1027.83
2023-02-06T22:38:58.833Z,1027.88
2023-02-06T22:41:58.830Z,1027.87
2023-02-06T22:44:58.837Z,1027.82
2023-02-06T22:47:58.834Z,1027.78
2023-02-06T22:50:58.835Z,1027.79
2023-02-06T22:53:58.829Z,1027.81
2023-02-06T22:56:58.823Z,1027.77
2023-02-06T22:59:58.833Z,1027.81
2023-02-06T23:02:58.840Z,1027.79
2023-02-06T23:05:58.841Z,1027.78
2023-02-06T23:08:58.844Z,1027.93
2023-02-06T23:11:58.841Z,1027.97
2023-02-06T23:14:58.845Z,1028.01
2023-02-06T23:17:58.850Z,1028.04
2023-02-06T23:20:58.839Z,1028.02
2023-02-06T23:23:58.849Z,1028.05
2023-02-06T23:26:58.847Z,1027.99
2023-02-06T23:29:58.847Z,1028.04
2023-02-06T23:32:58.849Z,1028.01
2023-02-06T23:35:58.845Z,1027.97
2023-02-06T23:38:58.844Z,1028.01
2023-02-06T23:41:58.844Z,1028.05
2023-02-06T23:44:58.848Z,1028.01
2023-02-06T23:47:58.843Z,1028.03
2023-02-06T23:50:58.844Z,1028.03
2023-02-06T23:53:58.843Z,1028.01
2023-02-06T23:56:58.842Z,1027.96
2023-02-06T23:59:58.845Z,1027.81
